Time;durP1;ratioP1;P1;durP2;ratioP2;P2;SDS_P1;SDS_P2;PMS_P1;PMS_P2;Temp;Humidity;BMP_temperature;BMP_pressure;BME280_temperature;BME280_humidity;BME280_pressure;Samples;Min_cycle;Max_cycle;Signal;HPM_P1;HPM_P2
2022/05/08 06:55:16;;;;;;;15.10;8.25;;;11.40;99.90;;;;;;5131873;27;20656;-76
2022/05/08 06:57:42;;;;;;;18.73;7.68;;;11.40;99.90;;;;;;5131910;28;20194;-77
2022/05/08 07:02:52;;;;;;;19.42;8.05;;;11.50;99.90;;;;;;5131697;28;20212;-77
2022/05/08 07:05:18;;;;;;;22.42;8.60;;;11.60;99.90;;;;;;5131568;28;20166;-77
2022/05/08 07:07:44;;;;;;;17.50;8.02;;;11.80;99.90;;;;;;5131502;28;20688;-77
2022/05/08 07:10:10;;;;;;;18.25;8.27;;;11.70;99.90;;;;;;5131470;28;20550;-77
2022/05/08 07:12:38;;;;;;;13.98;7.55;;;11.90;99.90;;;;;;5131407;28;20163;-77
2022/05/08 07:15:05;;;;;;;20.45;8.45;;;11.90;99.90;;;;;;5131328;28;20218;-77
2022/05/08 07:17:31;;;;;;;13.32;8.50;;;12.00;99.90;;;;;;5131272;28;20174;-77
2022/05/08 07:19:57;;;;;;;14.32;8.07;;;12.10;99.90;;;;;;5131280;28;20181;-77
2022/05/08 07:22:23;;;;;;;15.07;7.70;;;11.90;99.90;;;;;;5131247;28;20162;-77
2022/05/08 07:24:49;;;;;;;21.17;7.78;;;12.10;99.90;;;;;;5131107;28;20194;-77
2022/05/08 07:27:14;;;;;;;18.55;8.18;;;12.20;99.90;;;;;;5131200;28;20162;-78
2022/05/08 07:29:44;;;;;;;14.75;7.50;;;12.20;99.90;;;;;;5131166;28;20240;-77
2022/05/08 07:32:10;;;;;;;13.85;7.50;;;12.30;99.90;;;;;;5131027;27;20509;-77
2022/05/08 07:37:20;;;;;;;10.15;6.18;;;12.30;99.90;;;;;;5131246;28;20216;-77
2022/05/08 07:39:46;;;;;;;12.60;6.90;;;12.30;99.90;;;;;;5131014;28;20163;-77
2022/05/08 07:42:11;;;;;;;15.75;7.47;;;12.30;99.90;;;;;;5130919;28;20174;-77
2022/05/08 07:44:37;;;;;;;12.45;6.75;;;12.30;99.90;;;;;;5130852;28;20636;-77
2022/05/08 07:47:03;;;;;;;16.13;7.25;;;12.10;99.90;;;;;;5129577;28;20174;-77
2022/05/08 07:49:29;;;;;;;13.00;7.25;;;12.10;99.90;;;;;;5130727;28;20182;-77
2022/05/08 07:51:54;;;;;;;11.75;7.07;;;12.10;99.90;;;;;;5130690;28;20628;-77
2022/05/08 07:54:20;;;;;;;25.92;7.32;;;12.10;99.90;;;;;;5130422;28;20226;-78
2022/05/08 07:56:46;;;;;;;13.73;7.22;;;12.20;99.90;;;;;;5130702;28;20235;-77
2022/05/08 07:59:12;;;;;;;9.52;6.18;;;12.30;99.90;;;;;;5130550;28;20167;-77
2022/05/08 08:01:37;;;;;;;11.50;6.47;;;12.40;99.90;;;;;;5130495;28;20167;-77
2022/05/08 08:04:08;;;;;;;12.07;6.50;;;12.40;99.90;;;;;;5130523;28;20170;-77
2022/05/08 08:06:34;;;;;;;24.27;9.05;;;12.60;99.90;;;;;;5115923;28;20203;-77
2022/05/08 08:09:00;;;;;;;12.18;7.13;;;12.70;99.90;;;;;;5116705;28;20210;-77
2022/05/08 08:11:25;;;;;;;15.02;6.70;;;12.60;99.90;;;;;;5116628;28;20167;-77
2022/05/08 08:13:51;;;;;;;18.45;6.13;;;12.70;99.90;;;;;;5116438;28;20194;-77
2022/05/08 08:16:17;;;;;;;18.95;7.00;;;12.80;99.90;;;;;;5116502;28;20167;-77
2022/05/08 08:18:44;;;;;;;19.38;7.30;;;12.80;99.90;;;;;;5116551;28;20205;-78
2022/05/08 08:21:11;;;;;;;17.23;7.00;;;12.80;99.90;;;;;;5116509;28;20167;-77
2022/05/08 08:23:37;;;;;;;14.30;7.43;;;12.60;99.90;;;;;;5116421;28;20617;-77
2022/05/08 08:26:02;;;;;;;12.43;7.50;;;12.60;99.90;;;;;;5116302;28;20197;-77
2022/05/08 08:28:28;;;;;;;13.82;7.18;;;12.70;99.90;;;;;;5114987;28;20179;-77
2022/05/08 08:30:53;;;;;;;13.10;7.53;;;12.40;99.90;;;;;;5116313;28;20173;-78
2022/05/08 08:33:19;;;;;;;10.02;7.05;;;12.40;99.90;;;;;;5116155;28;20191;-77
2022/05/08 08:35:45;;;;;;;14.35;7.70;;;12.40;99.90;;;;;;5116156;28;20290;-77
2022/05/08 08:38:10;;;;;;;19.13;7.55;;;12.40;99.90;;;;;;5116152;28;20163;-77
2022/05/08 08:40:40;;;;;;;12.32;6.38;;;12.70;99.90;;;;;;5115998;28;20171;-77
2022/05/08 08:43:07;;;;;;;19.15;7.20;;;12.60;99.90;;;;;;5115893;28;20195;-77
2022/05/08 08:48:38;;;;;;;14.02;7.25;;;12.80;99.90;;;;;;5116230;28;20545;-77
2022/05/08 08:51:04;;;;;;;12.07;7.95;;;12.90;99.90;;;;;;5115884;28;20167;-77
2022/05/08 08:53:30;;;;;;;14.57;7.05;;;12.90;99.90;;;;;;5115446;28;20214;-77
2022/05/08 08:56:01;;;;;;;11.02;6.32;;;12.90;99.90;;;;;;5115812;28;20167;-77
2022/05/08 08:58:26;;;;;;;14.00;6.95;;;12.80;99.90;;;;;;5115731;28;20163;-77
2022/05/08 09:00:52;;;;;;;13.75;7.68;;;12.90;99.90;;;;;;5115611;28;20185;-77
2022/05/08 09:03:28;;;;;;;9.00;5.80;;;12.80;99.90;;;;;;5115580;28;20167;-77
2022/05/08 09:05:59;;;;;;;8.25;5.40;;;12.80;99.90;;;;;;5115528;28;20163;-77
2022/05/08 09:08:33;;;;;;;10.95;6.70;;;12.80;99.90;;;;;;5115552;28;20179;-77
2022/05/08 09:10:59;;;;;;;13.45;5.47;;;12.90;99.90;;;;;;5115501;28;20190;-77
2022/05/08 09:13:29;;;;;;;14.13;5.53;;;12.90;99.90;;;;;;5115240;28;20660;-77
2022/05/08 09:16:04;;;;;;;17.75;5.15;;;12.90;99.90;;;;;;5115388;28;20528;-77
2022/05/08 09:18:41;;;;;;;12.18;5.43;;;13.00;99.90;;;;;;5114911;28;20175;-77
2022/05/08 09:24:06;;;;;;;14.68;5.57;;;13.20;99.90;;;;;;5115244;28;20545;-77
2022/05/08 09:26:32;;;;;;;11.73;6.07;;;13.20;99.90;;;;;;5115149;28;20167;-77
2022/05/08 09:28:57;;;;;;;13.88;5.22;;;13.30;99.90;;;;;;5114991;28;20531;-77
2022/05/08 09:31:23;;;;;;;15.02;5.35;;;13.70;99.90;;;;;;5114957;28;20178;-77
2022/05/08 09:33:51;;;;;;;13.60;5.07;;;13.80;99.90;;;;;;5113653;28;20683;-77
2022/05/08 09:36:22;;;;;;;13.18;5.55;;;13.90;99.90;;;;;;5114989;28;20241;-78
2022/05/08 09:38:59;;;;;;;7.65;4.68;;;14.00;99.90;;;;;;5113641;28;20166;-77
2022/05/08 09:41:27;;;;;;;8.85;4.07;;;14.20;99.90;;;;;;5114848;28;20171;-77
2022/05/08 09:43:54;;;;;;;10.80;4.07;;;14.40;99.90;;;;;;5114793;28;20163;-77
2022/05/08 09:46:20;;;;;;;5.40;3.58;;;14.50;99.90;;;;;;5114791;28;20177;-77
2022/05/08 09:48:47;;;;;;;10.00;3.92;;;14.70;99.90;;;;;;5113507;28;20171;-77
2022/05/08 09:51:17;;;;;;;6.95;4.03;;;14.90;99.90;;;;;;5114718;28;20222;-77
2022/05/08 09:53:45;;;;;;;8.02;4.22;;;14.90;99.90;;;;;;5114450;28;20215;-77
2022/05/08 09:56:12;;;;;;;8.88;3.83;;;15.00;99.90;;;;;;5114584;28;20159;-77
2022/05/08 09:58:43;;;;;;;10.98;4.45;;;15.10;99.90;;;;;;5114659;28;20250;-77
2022/05/08 10:01:09;;;;;;;11.10;3.95;;;15.10;99.90;;;;;;5113259;28;20206;-78
2022/05/08 10:03:35;;;;;;;5.78;4.10;;;14.90;99.90;;;;;;5114467;28;20636;-77
2022/05/08 10:06:01;;;;;;;8.75;4.18;;;14.80;99.90;;;;;;5114429;28;20523;-77
2022/05/08 10:08:30;;;;;;;11.52;4.57;;;14.90;99.90;;;;;;5114374;28;20171;-77
2022/05/08 10:13:53;;;;;;;14.95;4.70;;;14.90;99.90;;;;;;5114514;28;20239;-77
2022/05/08 10:16:55;;;;;;;13.80;4.40;;;14.60;99.90;;;;;;5114225;28;20167;-77
2022/05/08 10:19:27;;;;;;;10.15;5.03;;;14.50;99.90;;;;;;5114194;28;20162;-77
2022/05/08 10:22:09;;;;;;;11.32;4.03;;;14.20;99.90;;;;;;5114142;28;20163;-78
2022/05/08 10:24:54;;;;;;;10.38;4.90;;;14.30;99.90;;;;;;5114080;28;20190;-77
2022/05/08 10:27:29;;;;;;;13.98;4.25;;;14.30;99.90;;;;;;5114046;28;20651;-77
2022/05/08 10:29:55;;;;;;;10.30;3.67;;;14.30;99.90;;;;;;5114056;28;20254;-78
2022/05/08 10:32:32;;;;;;;12.15;4.55;;;14.30;99.90;;;;;;5114014;28;20253;-78
2022/05/08 10:35:07;;;;;;;6.70;4.05;;;14.40;99.90;;;;;;5113876;28;20199;-77
2022/05/08 10:37:34;;;;;;;12.60;3.78;;;14.40;99.90;;;;;;5113889;28;20162;-77
2022/05/08 10:40:01;;;;;;;6.10;3.67;;;14.50;99.90;;;;;;5112594;28;20171;-77
2022/05/08 10:42:33;;;;;;;11.85;4.35;;;14.50;99.90;;;;;;5112815;28;20171;-77
2022/05/08 10:45:00;;;;;;;7.93;3.30;;;14.50;99.90;;;;;;5113830;28;20170;-77
2022/05/08 10:47:32;;;;;;;3.67;2.88;;;14.60;99.90;;;;;;5113873;28;20526;-77
2022/05/08 10:50:02;;;;;;;7.00;3.08;;;14.70;99.90;;;;;;5113758;28;20167;-77
2022/05/08 10:52:30;;;;;;;6.20;3.47;;;14.80;99.90;;;;;;5113739;28;21190;-77
2022/05/08 10:55:00;;;;;;;9.20;3.38;;;14.70;99.90;;;;;;5113505;28;20242;-77
2022/05/08 10:57:45;;;;;;;6.63;3.60;;;14.80;99.90;;;;;;5113741;28;20171;-77
2022/05/08 11:00:18;;;;;;;4.53;2.92;;;14.80;99.90;;;;;;5113658;28;20620;-77
2022/05/08 11:02:47;;;;;;;6.85;3.58;;;14.90;99.90;;;;;;5113643;28;20166;-77
2022/05/08 11:05:23;;;;;;;6.13;3.22;;;15.00;99.90;;;;;;5113859;28;20223;-77
2022/05/08 11:08:03;;;;;;;11.73;4.30;;;15.00;99.90;;;;;;5113689;28;20174;-77
2022/05/08 11:10:29;;;;;;;7.93;3.13;;;15.10;99.90;;;;;;5113623;28;20228;-77
2022/05/08 11:13:06;;;;;;;5.28;4.13;;;15.00;99.90;;;;;;5112284;28;20616;-77
2022/05/08 11:15:34;;;;;;;12.07;3.65;;;15.00;99.90;;;;;;5113534;28;20189;-78
2022/05/08 11:18:03;;;;;;;10.40;3.40;;;15.00;99.90;;;;;;5113537;28;20171;-78
2022/05/08 11:20:31;;;;;;;4.78;2.97;;;15.00;99.90;;;;;;5113484;28;20269;-78
2022/05/08 11:22:57;;;;;;;7.18;2.92;;;15.10;99.90;;;;;;5113523;28;20624;-78
2022/05/08 11:25:23;;;;;;;9.07;3.67;;;15.20;99.90;;;;;;5113388;28;20205;-78
2022/05/08 11:27:52;;;;;;;9.00;3.13;;;15.20;99.90;;;;;;5113410;28;20524;-78
2022/05/08 11:30:35;;;;;;;5.15;2.67;;;15.30;99.90;;;;;;5113453;28;20658;-78
2022/05/08 11:36:06;;;;;;;4.00;2.38;;;15.60;99.90;;;;;;5113688;28;20560;-78
2022/05/08 11:38:48;;;;;;;9.80;2.85;;;15.70;99.90;;;;;;5113413;28;20198;-77
2022/05/08 11:41:22;;;;;;;5.07;2.28;;;15.80;99.90;;;;;;5114525;28;20205;-78
2022/05/08 11:43:53;;;;;;;4.40;2.45;;;16.00;99.90;;;;;;5117232;28;20628;-77
2022/05/08 11:46:30;;;;;;;4.10;2.60;;;16.00;99.90;;;;;;5117094;28;20182;-78
2022/05/08 11:48:56;;;;;;;4.57;2.15;;;16.20;99.90;;;;;;5117116;28;20170;-78
2022/05/08 11:51:22;;;;;;;4.68;2.58;;;16.20;99.90;;;;;;5115789;28;20179;-77
2022/05/08 11:53:52;;;;;;;3.85;2.08;;;16.30;99.90;;;;;;5116775;28;20231;-78
2022/05/08 11:56:29;;;;;;;3.40;2.10;;;16.30;99.90;;;;;;5117047;28;20163;-78
2022/05/08 11:58:56;;;;;;;7.13;3.30;;;16.40;99.90;;;;;;5116853;28;20177;-78
2022/05/08 12:01:29;;;;;;;2.78;1.80;;;16.40;99.90;;;;;;5116833;28;20514;-77
2022/05/08 12:03:56;;;;;;;10.40;1.83;;;16.60;99.90;;;;;;5116813;28;20167;-78
2022/05/08 12:06:23;;;;;;;2.42;1.63;;;16.70;99.90;;;;;;5116852;28;20254;-78
2022/05/08 12:08:51;;;;;;;2.10;1.70;;;16.80;99.90;;;;;;5116740;28;20170;-78
2022/05/08 12:11:30;;;;;;;4.93;1.98;;;16.90;99.90;;;;;;5116647;28;20182;-77
2022/05/08 12:14:07;;;;;;;1.40;1.38;;;17.00;99.90;;;;;;5116644;28;20210;-78
2022/05/08 12:16:35;;;;;;;2.67;2.15;;;17.00;99.90;;;;;;5116532;28;20171;-78
2022/05/08 12:19:21;;;;;;;3.90;1.83;;;17.10;99.90;;;;;;5116594;28;20192;-77
2022/05/08 12:21:46;;;;;;;2.65;1.95;;;17.10;99.90;;;;;;5116426;28;20608;-78
2022/05/08 12:24:17;;;;;;;5.97;1.80;;;17.10;99.90;;;;;;5115029;28;20200;-78
2022/05/08 12:26:44;;;;;;;3.47;1.88;;;17.20;99.90;;;;;;5116276;28;20163;-78
2022/05/08 12:29:21;;;;;;;4.47;1.70;;;17.30;99.90;;;;;;5115002;28;20179;-78
2022/05/08 12:31:50;;;;;;;3.28;2.13;;;17.50;99.90;;;;;;5116283;28;20658;-77
2022/05/08 12:34:16;;;;;;;1.70;1.35;;;17.70;99.90;;;;;;5114793;28;20199;-78
2022/05/08 12:36:42;;;;;;;4.45;1.63;;;17.70;99.90;;;;;;5116181;28;20175;-77
2022/05/08 12:39:09;;;;;;;6.30;1.73;;;17.70;99.90;;;;;;5114907;28;20167;-77
2022/05/08 12:41:39;;;;;;;5.03;1.65;;;17.70;99.90;;;;;;5116072;28;20162;-76
2022/05/08 12:44:05;;;;;;;4.07;1.52;;;17.90;99.90;;;;;;5114708;28;20530;-77
2022/05/08 12:46:32;;;;;;;3.28;1.73;;;17.90;99.90;;;;;;5114689;28;20175;-76
2022/05/08 12:49:03;;;;;;;2.13;1.75;;;18.00;99.90;;;;;;5115900;28;20166;-76
2022/05/08 12:51:35;;;;;;;4.93;1.92;;;18.10;99.90;;;;;;5115752;28;20513;-77
2022/05/08 12:54:02;;;;;;;5.10;1.60;;;18.20;99.90;;;;;;5115594;28;20556;-77
2022/05/08 12:56:33;;;;;;;3.35;1.70;;;18.30;99.90;;;;;;5116058;28;20616;-77
2022/05/08 13:01:44;;;;;;;2.38;1.63;;;18.40;99.90;;;;;;5116197;28;20173;-76
2022/05/08 13:04:10;;;;;;;3.42;1.70;;;18.60;99.90;;;;;;5115747;28;20171;-77
2022/05/08 13:06:35;;;;;;;3.50;1.63;;;18.70;99.90;;;;;;5115982;28;20679;-77
2022/05/08 13:09:03;;;;;;;5.10;1.70;;;18.90;99.90;;;;;;5115787;28;20202;-76
2022/05/08 13:11:29;;;;;;;4.95;1.77;;;19.10;99.90;;;;;;5114603;28;20548;-76
2022/05/08 13:13:57;;;;;;;1.75;1.40;;;19.30;99.90;;;;;;5115740;28;20190;-76
2022/05/08 13:16:24;;;;;;;1.70;1.50;;;19.20;99.90;;;;;;5115545;28;20174;-76
2022/05/08 13:18:50;;;;;;;3.35;2.15;;;19.30;99.90;;;;;;5115742;28;20618;-77
2022/05/08 13:21:16;;;;;;;4.15;1.80;;;19.40;99.90;;;;;;5115703;28;20607;-76
2022/05/08 13:23:42;;;;;;;3.08;1.42;;;19.40;99.90;;;;;;5115473;28;20666;-76
2022/05/08 13:26:08;;;;;;;2.20;1.75;;;19.30;99.90;;;;;;5115112;28;20222;-76
2022/05/08 13:28:34;;;;;;;2.10;1.90;;;19.40;99.90;;;;;;5115464;28;20623;-77
2022/05/08 13:31:01;;;;;;;1.60;1.50;;;19.50;99.90;;;;;;5115399;28;20163;-77
2022/05/08 13:33:26;;;;;;;3.00;1.50;;;19.70;99.90;;;;;;5115088;28;20721;-77
2022/05/08 13:35:55;;;;;;;1.40;1.30;;;19.90;99.90;;;;;;5115079;28;20170;-77
2022/05/08 13:38:21;;;;;;;2.83;2.10;;;20.10;99.90;;;;;;5115289;28;20171;-76
2022/05/08 13:40:51;;;;;;;2.30;2.20;;;20.20;99.90;;;;;;5115090;28;20171;-76
2022/05/08 13:43:17;;;;;;;2.90;2.00;;;20.30;99.90;;;;;;5115110;28;20649;-77
2022/05/08 13:45:43;;;;;;;3.35;1.83;;;20.10;99.90;;;;;;5115149;28;20167;-77
2022/05/08 13:48:10;;;;;;;5.00;2.17;;;20.30;99.90;;;;;;5115044;28;20189;-76
2022/05/08 13:50:36;;;;;;;3.80;1.90;;;20.30;99.90;;;;;;5113789;28;20177;-76
2022/05/08 13:53:08;;;;;;;4.90;2.58;;;20.40;99.90;;;;;;5114862;28;20231;-77
2022/05/08 13:55:37;;;;;;;3.58;2.28;;;20.60;99.90;;;;;;5115070;28;20219;-77
2022/05/08 13:58:02;;;;;;;6.30;3.10;;;20.70;99.90;;;;;;5114749;28;20159;-76
2022/05/08 14:00:28;;;;;;;3.95;2.40;;;20.70;99.90;;;;;;5114849;28;20255;-76
2022/05/08 14:02:54;;;;;;;4.07;2.28;;;20.80;99.90;;;;;;5114247;28;20163;-76
2022/05/08 14:05:20;;;;;;;2.70;1.75;;;20.80;99.90;;;;;;5114667;28;20177;-77
2022/05/08 14:07:45;;;;;;;4.80;2.25;;;20.90;99.90;;;;;;5114673;28;20620;-76
2022/05/08 14:10:11;;;;;;;5.10;2.35;;;20.90;99.90;;;;;;5114459;28;20178;-76
2022/05/08 14:12:40;;;;;;;4.63;2.35;;;20.90;99.90;;;;;;5114456;28;20211;-76
2022/05/08 14:15:06;;;;;;;5.25;2.45;;;21.00;99.90;;;;;;5114484;28;20202;-76
2022/05/08 14:17:32;;;;;;;3.08;2.10;;;21.00;99.90;;;;;;5114432;28;20291;-76
2022/05/08 14:19:58;;;;;;;2.67;1.60;;;21.00;99.90;;;;;;5114632;28;20579;-76
2022/05/08 14:22:27;;;;;;;2.90;2.17;;;21.10;99.90;;;;;;5114379;28;20158;-76
2022/05/08 14:24:53;;;;;;;6.85;2.15;;;21.10;99.90;;;;;;5114243;28;20273;-76
2022/05/08 14:27:21;;;;;;;1.98;1.75;;;20.70;99.90;;;;;;5114337;28;20178;-76
2022/05/08 14:29:47;;;;;;;4.18;2.35;;;20.90;99.90;;;;;;5114448;28;20173;-76
2022/05/08 14:37:43;;;;;;;3.42;1.77;;;21.20;99.90;;;;;;5114108;28;20219;-77
2022/05/08 14:40:11;;;;;;;3.55;2.28;;;21.20;99.90;;;;;;5114113;28;20166;-77
2022/05/08 14:42:37;;;;;;;3.85;2.10;;;21.30;99.90;;;;;;5114150;28;20165;-77
2022/05/08 14:45:05;;;;;;;6.55;1.83;;;21.40;99.90;;;;;;5114083;28;20162;-77
2022/05/08 14:47:31;;;;;;;4.65;1.95;;;21.80;99.90;;;;;;5112803;28;20229;-77
2022/05/08 14:49:59;;;;;;;3.25;1.50;;;21.90;99.90;;;;;;5114263;28;20627;-77
2022/05/08 14:52:24;;;;;;;2.45;1.42;;;22.10;99.90;;;;;;5113869;28;20170;-76
2022/05/08 14:54:50;;;;;;;2.60;1.45;;;22.20;99.90;;;;;;5113740;28;20226;-76
2022/05/08 14:57:16;;;;;;;4.05;1.85;;;22.20;99.90;;;;;;5113870;28;20190;-75
2022/05/08 14:59:43;;;;;;;6.03;2.22;;;22.30;99.90;;;;;;5113855;28;20218;-77
2022/05/08 15:02:08;;;;;;;7.15;3.72;;;22.30;99.90;;;;;;5113686;28;20166;-76
2022/05/08 15:04:34;;;;;;;7.20;4.13;;;22.30;99.90;;;;;;5113876;28;20162;-76
2022/05/08 15:07:00;;;;;;;5.03;2.28;;;22.10;99.90;;;;;;5113862;28;20177;-76
2022/05/08 15:09:27;;;;;;;2.80;2.50;;;22.10;99.90;;;;;;5113851;28;20173;-76
2022/05/08 15:11:53;;;;;;;8.07;2.35;;;22.00;99.90;;;;;;5113916;28;20556;-76
2022/05/08 15:14:18;;;;;;;4.07;2.17;;;22.10;99.90;;;;;;5113573;28;20201;-76
2022/05/08 15:16:44;;;;;;;4.70;2.17;;;22.20;99.90;;;;;;5117033;28;20174;-75
2022/05/08 15:19:12;;;;;;;3.40;2.08;;;22.20;99.90;;;;;;5117985;28;20154;-77
2022/05/08 15:21:39;;;;;;;4.35;2.15;;;22.00;99.90;;;;;;5117962;28;20154;-76
2022/05/08 15:24:05;;;;;;;2.63;2.08;;;22.10;99.90;;;;;;5117679;28;20235;-76
2022/05/08 15:26:30;;;;;;;4.93;2.28;;;22.20;99.90;;;;;;5117704;28;20567;-76
2022/05/08 15:28:59;;;;;;;3.17;1.80;;;22.40;99.90;;;;;;5116494;28;20170;-77
2022/05/08 15:31:25;;;;;;;2.45;1.80;;;22.30;99.90;;;;;;5117598;28;20167;-76
2022/05/08 15:33:51;;;;;;;3.53;2.15;;;22.10;99.90;;;;;;5117567;28;20205;-76
2022/05/08 15:36:17;;;;;;;3.95;2.08;;;22.10;99.90;;;;;;5116328;28;20171;-76
2022/05/08 15:38:42;;;;;;;3.10;1.85;;;22.00;99.90;;;;;;5117487;28;20166;-76
2022/05/08 15:41:08;;;;;;;8.27;2.50;;;22.20;99.90;;;;;;5117518;28;20167;-75
2022/05/08 15:43:34;;;;;;;2.15;1.60;;;22.40;99.90;;;;;;5117496;28;20177;-77
2022/05/08 15:46:04;;;;;;;3.33;1.95;;;22.50;99.90;;;;;;5117321;28;20178;-77
2022/05/08 15:48:31;;;;;;;6.65;1.95;;;22.50;99.90;;;;;;5117450;28;20171;-76
2022/05/08 15:50:57;;;;;;;8.90;2.65;;;22.50;99.90;;;;;;5117248;28;20162;-77
2022/05/08 15:53:23;;;;;;;5.57;1.60;;;22.60;99.90;;;;;;5117155;28;20218;-76
2022/05/08 15:55:49;;;;;;;3.75;1.95;;;22.60;99.90;;;;;;5117145;28;20189;-77
2022/05/08 15:58:17;;;;;;;3.72;1.60;;;22.70;99.90;;;;;;5117083;28;20613;-77
2022/05/08 16:00:46;;;;;;;5.05;1.95;;;22.60;99.90;;;;;;5117111;28;20201;-77
2022/05/08 16:03:13;;;;;;;2.28;2.08;;;22.40;99.90;;;;;;5115920;28;20193;-76
2022/05/08 16:05:50;;;;;;;2.67;1.70;;;22.50;99.90;;;;;;5115684;28;20162;-77
2022/05/08 16:08:24;;;;;;;2.92;1.77;;;22.60;99.90;;;;;;5116957;28;20167;-77
2022/05/08 16:10:51;;;;;;;3.28;2.22;;;22.70;99.90;;;;;;5116963;28;20167;-77
2022/05/08 16:24:16;;;;;;;2.05;1.90;;;22.90;99.90;;;;;;5116491;28;20254;-77
2022/05/08 16:26:43;;;;;;;3.65;1.92;;;22.90;99.90;;;;;;5116274;28;20288;-77
2022/05/08 16:29:09;;;;;;;2.08;1.70;;;22.80;99.90;;;;;;5116407;28;20158;-77
2022/05/08 16:31:36;;;;;;;2.80;1.75;;;22.70;99.90;;;;;;5116628;28;20162;-77
2022/05/08 16:34:02;;;;;;;4.40;1.80;;;22.80;99.90;;;;;;5115047;28;20595;-77
2022/05/08 16:36:30;;;;;;;5.05;2.78;;;22.70;99.90;;;;;;5116422;28;20166;-77
2022/05/08 16:38:56;;;;;;;4.53;1.70;;;22.80;99.90;;;;;;5116439;28;20608;-77
2022/05/08 16:41:25;;;;;;;8.93;1.95;;;22.90;99.90;;;;;;5116247;28;20194;-76
2022/05/08 16:43:55;;;;;;;6.43;2.10;;;22.80;99.90;;;;;;5116261;28;20167;-79
2022/05/08 16:46:21;;;;;;;4.03;1.85;;;22.80;99.90;;;;;;5116188;28;20246;-78
2022/05/08 16:48:48;;;;;;;4.25;2.35;;;22.70;99.90;;;;;;5114853;28;20219;-77
2022/05/08 16:51:14;;;;;;;9.05;2.80;;;22.50;99.90;;;;;;5116129;28;20205;-77
2022/05/08 16:53:40;;;;;;;6.88;2.20;;;22.50;99.90;;;;;;5114574;28;20225;-77
2022/05/08 16:56:06;;;;;;;4.32;1.92;;;22.70;99.90;;;;;;5115900;28;20167;-78
2022/05/08 16:58:31;;;;;;;7.88;1.88;;;22.60;99.90;;;;;;5115994;28;20198;-78
2022/05/08 17:01:01;;;;;;;4.15;2.30;;;22.70;99.90;;;;;;5115690;28;20209;-77
2022/05/08 17:03:28;;;;;;;4.60;2.65;;;22.60;99.90;;;;;;5115834;28;20231;-77
2022/05/08 17:05:54;;;;;;;3.58;1.90;;;22.70;99.90;;;;;;5115843;28;20166;-78
2022/05/08 17:08:25;;;;;;;3.05;2.10;;;22.70;99.90;;;;;;5115712;28;20163;-76
2022/05/08 17:10:51;;;;;;;5.50;2.30;;;22.80;99.90;;;;;;5115828;28;20163;-76
2022/05/08 17:13:16;;;;;;;4.30;2.20;;;22.70;99.90;;;;;;5115350;28;20169;-76
2022/05/08 17:15:43;;;;;;;6.28;2.03;;;22.90;99.90;;;;;;5115630;28;20513;-76
2022/05/08 17:18:11;;;;;;;2.42;2.00;;;22.90;99.90;;;;;;5115638;28;20172;-76
2022/05/08 17:20:37;;;;;;;4.15;2.22;;;22.80;99.90;;;;;;5115535;28;20163;-76
2022/05/08 17:23:04;;;;;;;4.38;2.20;;;22.60;99.90;;;;;;5115464;28;20494;-76
2022/05/08 17:25:31;;;;;;;7.95;2.35;;;22.50;99.90;;;;;;5115327;28;20261;-76
2022/05/08 17:30:41;;;;;;;4.28;3.17;;;22.50;99.90;;;;;;5115620;28;20177;-76
2022/05/08 17:33:07;;;;;;;6.65;2.70;;;22.40;99.90;;;;;;5115276;28;20166;-76
2022/05/08 17:35:35;;;;;;;5.82;2.60;;;22.30;99.90;;;;;;5115162;28;20639;-76
2022/05/08 17:38:01;;;;;;;3.03;2.05;;;22.30;99.90;;;;;;5114411;28;20604;-76
2022/05/08 17:40:28;;;;;;;4.47;2.63;;;22.20;99.90;;;;;;5115002;28;20166;-76
2022/05/08 17:42:54;;;;;;;5.85;2.88;;;22.20;99.90;;;;;;5115176;28;20223;-76
2022/05/08 17:45:20;;;;;;;2.30;1.90;;;22.20;99.90;;;;;;5115074;28;20612;-76
2022/05/08 17:47:45;;;;;;;6.90;2.50;;;21.90;99.90;;;;;;5114179;28;20522;-76
2022/05/08 17:50:14;;;;;;;4.68;2.20;;;21.70;99.90;;;;;;5113786;28;20260;-76
2022/05/08 17:52:39;;;;;;;5.45;2.17;;;21.70;99.90;;;;;;5113546;28;20649;-76
2022/05/08 17:55:06;;;;;;;7.90;2.75;;;21.80;99.90;;;;;;5114750;28;20312;-76
2022/05/08 17:57:31;;;;;;;4.53;2.70;;;21.60;99.90;;;;;;5114925;28;20166;-76
2022/05/08 17:59:57;;;;;;;5.20;2.40;;;21.40;99.90;;;;;;5114764;28;20688;-76
2022/05/08 18:07:51;;;;;;;7.53;2.50;;;21.00;99.90;;;;;;5114683;28;20174;-79
2022/05/08 18:10:20;;;;;;;6.82;2.60;;;20.80;99.90;;;;;;5113328;28;20170;-78
2022/05/08 18:12:45;;;;;;;7.97;3.10;;;20.70;99.90;;;;;;5114507;28;20162;-79
2022/05/08 18:15:11;;;;;;;5.20;2.92;;;20.50;99.90;;;;;;5114522;28;20219;-79
2022/05/08 18:17:37;;;;;;;3.83;2.50;;;20.40;99.90;;;;;;5114483;28;20170;-79
2022/05/08 18:20:03;;;;;;;5.45;2.83;;;20.20;99.90;;;;;;5114524;28;20179;-79
2022/05/08 18:22:28;;;;;;;3.67;2.70;;;19.90;99.90;;;;;;5114388;28;20170;-79
2022/05/08 18:24:54;;;;;;;6.47;2.70;;;19.80;99.90;;;;;;5114221;28;20190;-79
2022/05/08 18:27:19;;;;;;;6.32;3.25;;;19.60;99.90;;;;;;5114266;28;20170;-79
2022/05/08 18:29:45;;;;;;;2.63;2.40;;;19.50;99.90;;;;;;5114256;28;20167;-79
2022/05/08 18:32:11;;;;;;;3.13;2.47;;;19.30;99.90;;;;;;5114287;28;20286;-78
2022/05/08 18:34:36;;;;;;;5.65;2.78;;;19.10;99.90;;;;;;5114035;28;20198;-77
2022/05/08 18:37:02;;;;;;;4.15;2.67;;;19.00;99.90;;;;;;5114128;28;20177;-77
2022/05/08 18:39:30;;;;;;;4.78;2.60;;;18.70;99.90;;;;;;5114206;28;20158;-77
2022/05/08 18:41:57;;;;;;;5.30;3.38;;;18.50;99.90;;;;;;5114109;28;20162;-77
2022/05/08 18:44:26;;;;;;;4.43;2.38;;;18.20;99.90;;;;;;5113991;28;20173;-77
2022/05/08 18:46:54;;;;;;;6.28;2.58;;;18.00;99.90;;;;;;5113004;28;20546;-78
2022/05/08 18:49:29;;;;;;;5.57;2.58;;;17.80;99.90;;;;;;5113945;28;20170;-77
2022/05/08 18:52:01;;;;;;;9.35;2.80;;;17.70;99.90;;;;;;5114007;28;20166;-77
2022/05/08 18:54:28;;;;;;;5.22;2.58;;;17.50;99.90;;;;;;5113935;28;20301;-78
2022/05/08 18:56:53;;;;;;;5.53;2.50;;;17.30;99.90;;;;;;5113957;28;20174;-78
2022/05/08 18:59:19;;;;;;;5.80;2.75;;;17.00;99.90;;;;;;5112788;28;20167;-77
2022/05/08 19:01:46;;;;;;;6.35;3.17;;;16.80;99.90;;;;;;5113899;28;20167;-76
2022/05/08 19:04:12;;;;;;;4.55;2.40;;;16.50;99.90;;;;;;5113929;28;20248;-77
